createdAt,value
2022-10-28T00:00:53.386Z,3.60
2022-10-28T00:03:21.459Z,3.40
2022-10-28T00:05:49.652Z,4.07
2022-10-28T00:08:17.633Z,3.10
2022-10-28T00:10:46.971Z,3.40
2022-10-28T00:13:14.850Z,3.33
2022-10-28T00:15:42.906Z,3.47
2022-10-28T00:18:11.358Z,3.63
2022-10-28T00:20:39.420Z,4.00
2022-10-28T00:23:07.420Z,3.20
2022-10-28T00:25:35.605Z,3.60
2022-10-28T00:28:05.006Z,3.30
2022-10-28T00:30:32.946Z,3.40
2022-10-28T00:33:00.854Z,2.83
2022-10-28T00:35:28.834Z,3.97
2022-10-28T00:37:56.909Z,3.47
2022-10-28T00:40:24.965Z,3.10
2022-10-28T00:42:53.266Z,3.10
2022-10-28T00:45:23.449Z,2.80
2022-10-28T00:47:56.052Z,3.53
2022-10-28T00:50:46.609Z,3.13
2022-10-28T00:53:19.388Z,3.80
2022-10-28T00:55:48.557Z,2.80
2022-10-28T00:58:17.612Z,2.77
2022-10-28T01:00:47.071Z,3.60
2022-10-28T01:03:16.266Z,3.07
2022-10-28T01:05:47.830Z,3.00
2022-10-28T01:08:16.798Z,3.33
2022-10-28T01:11:13.764Z,2.97
2022-10-28T01:13:50.943Z,3.23
2022-10-28T01:16:29.886Z,2.70
2022-10-28T01:19:14.090Z,2.97
2022-10-28T01:22:01.885Z,2.70
2022-10-28T01:24:46.534Z,3.40
2022-10-28T01:27:43.248Z,2.67
2022-10-28T01:30:15.032Z,2.83
2022-10-28T01:32:53.429Z,3.00
2022-10-28T01:35:28.752Z,3.43
2022-10-28T01:38:15.608Z,3.20
2022-10-28T01:40:49.966Z,3.13
2022-10-28T01:43:26.616Z,2.87
2022-10-28T01:46:00.598Z,3.50
2022-10-28T01:48:35.790Z,2.63
2022-10-28T01:51:09.012Z,2.73
2022-10-28T01:53:41.772Z,2.63
2022-10-28T01:56:12.973Z,2.87
2022-10-28T01:58:42.852Z,2.83
2022-10-28T02:01:12.384Z,2.43
2022-10-28T02:03:41.924Z,3.17
2022-10-28T02:06:17.300Z,2.93
2022-10-28T02:08:58.757Z,2.23
2022-10-28T02:11:39.765Z,2.33
2022-10-28T02:14:20.024Z,2.70
2022-10-28T02:16:51.262Z,2.43
2022-10-28T02:19:32.610Z,2.97
2022-10-28T02:22:15.084Z,2.80
2022-10-28T02:24:51.731Z,2.63
2022-10-28T02:27:27.103Z,2.43
2022-10-28T02:29:58.409Z,2.70
2022-10-28T02:32:28.538Z,2.60
2022-10-28T02:35:00.527Z,2.60
2022-10-28T02:37:31.637Z,2.37
2022-10-28T02:40:03.661Z,2.87
2022-10-28T02:42:34.519Z,3.20
2022-10-28T02:45:09.029Z,2.97
2022-10-28T02:47:41.214Z,3.13
2022-10-28T02:50:15.581Z,2.33
2022-10-28T02:52:46.927Z,3.47
2022-10-28T02:55:15.153Z,2.77
2022-10-28T02:57:48.200Z,3.17
2022-10-28T03:00:19.899Z,2.53
2022-10-28T03:02:48.203Z,3.00
2022-10-28T03:05:17.741Z,2.97
2022-10-28T03:07:45.714Z,2.53
2022-10-28T03:10:13.724Z,3.27
2022-10-28T03:12:41.667Z,3.10
2022-10-28T03:15:10.614Z,3.03
2022-10-28T03:17:38.554Z,2.83
2022-10-28T03:20:07.497Z,2.83
2022-10-28T03:22:36.911Z,3.10
2022-10-28T03:25:05.332Z,3.03
2022-10-28T03:27:33.316Z,3.53
2022-10-28T03:30:01.666Z,3.47
2022-10-28T03:32:29.600Z,2.70
2022-10-28T03:34:57.629Z,2.90
2022-10-28T03:37:25.621Z,3.03
2022-10-28T03:39:55.040Z,3.13
2022-10-28T03:42:22.890Z,3.07
2022-10-28T03:44:50.955Z,3.50
2022-10-28T03:47:19.027Z,3.10
2022-10-28T03:49:46.904Z,2.40
2022-10-28T03:52:14.933Z,3.40
2022-10-28T03:54:42.947Z,3.43
2022-10-28T03:57:12.396Z,3.50
2022-10-28T03:59:40.425Z,4.43
2022-10-28T04:02:08.644Z,3.10
2022-10-28T04:04:37.571Z,3.47
2022-10-28T04:07:05.448Z,4.23
2022-10-28T04:09:33.462Z,3.13
2022-10-28T04:12:01.438Z,3.50
2022-10-28T04:14:30.791Z,3.63
2022-10-28T04:16:58.747Z,3.37
2022-10-28T04:19:26.733Z,3.13
2022-10-28T04:21:54.723Z,2.93
2022-10-28T04:24:22.632Z,3.20
2022-10-28T04:26:50.510Z,3.20
2022-10-28T04:29:19.325Z,3.53
2022-10-28T04:31:51.349Z,3.73
2022-10-28T04:34:20.256Z,3.30
2022-10-28T04:36:48.263Z,3.33
2022-10-28T04:39:16.281Z,2.93
2022-10-28T04:41:44.184Z,3.30
2022-10-28T04:44:12.152Z,3.60
2022-10-28T04:46:39.992Z,3.30
2022-10-28T04:49:09.949Z,3.27
2022-10-28T04:51:37.968Z,3.70
2022-10-28T04:54:06.068Z,4.20
2022-10-28T04:56:34.342Z,3.03
2022-10-28T04:59:02.223Z,2.90
2022-10-28T05:01:30.150Z,3.17
2022-10-28T05:03:58.150Z,3.60
2022-10-28T05:06:27.877Z,3.47
2022-10-28T05:08:55.994Z,2.90
2022-10-28T05:11:23.993Z,3.47
2022-10-28T05:13:53.158Z,3.90
2022-10-28T05:16:21.171Z,3.07
2022-10-28T05:18:49.084Z,4.00
2022-10-28T05:21:17.121Z,3.67
2022-10-28T05:23:47.186Z,4.43
2022-10-28T05:26:15.204Z,3.37
2022-10-28T05:28:43.461Z,3.30
2022-10-28T05:31:11.590Z,3.77
2022-10-28T05:33:39.522Z,3.00
2022-10-28T05:36:08.064Z,3.30
2022-10-28T05:38:36.045Z,3.87
2022-10-28T05:41:05.319Z,4.23
2022-10-28T05:43:33.266Z,3.13
2022-10-28T05:46:02.634Z,3.83
2022-10-28T05:48:30.599Z,3.70
2022-10-28T05:50:58.582Z,3.17
2022-10-28T05:53:26.584Z,2.93
2022-10-28T05:55:54.548Z,3.60
2022-10-28T05:58:24.052Z,3.67
2022-10-28T06:00:52.095Z,3.60
2022-10-28T06:03:20.123Z,3.37
2022-10-28T06:05:48.045Z,3.60
2022-10-28T06:08:16.236Z,3.83
2022-10-28T06:10:56.178Z,3.13
2022-10-28T06:13:25.641Z,4.23
2022-10-28T06:15:54.109Z,3.27
2022-10-28T06:18:22.718Z,2.80
2022-10-28T06:20:54.359Z,3.43
2022-10-28T06:23:22.633Z,3.77
2022-10-28T06:25:50.871Z,3.60
2022-10-28T06:28:18.996Z,4.70
2022-10-28T06:30:48.288Z,3.90
2022-10-28T06:33:16.261Z,5.93
2022-10-28T06:35:44.382Z,6.40
2022-10-28T06:38:12.880Z,5.17
2022-10-28T06:40:40.914Z,5.30
2022-10-28T06:43:11.116Z,4.80
2022-10-28T06:45:39.008Z,5.63
2022-10-28T06:48:11.405Z,6.13
2022-10-28T06:50:39.547Z,5.20
2022-10-28T06:53:07.473Z,5.40
2022-10-28T06:55:36.550Z,5.00
2022-10-28T06:58:04.907Z,5.10
2022-10-28T07:00:34.815Z,5.60
2022-10-28T07:03:03.153Z,5.23
2022-10-28T07:05:32.666Z,5.83
2022-10-28T07:08:00.549Z,6.03
2022-10-28T07:10:28.633Z,5.97
2022-10-28T07:12:59.478Z,4.83
2022-10-28T07:15:27.491Z,6.17
2022-10-28T07:17:55.930Z,5.90
2022-10-28T07:20:25.285Z,5.80
2022-10-28T07:22:58.651Z,5.93
2022-10-28T07:25:27.179Z,4.77
2022-10-28T07:27:55.484Z,5.73
2022-10-28T07:30:23.952Z,5.20
2022-10-28T07:32:52.298Z,5.70
2022-10-28T07:35:20.813Z,5.13
2022-10-28T07:37:48.880Z,5.77
2022-10-28T07:40:18.184Z,5.43
2022-10-28T07:42:46.232Z,5.23
2022-10-28T07:45:14.575Z,6.47
2022-10-28T07:47:42.552Z,5.13
2022-10-28T07:50:11.357Z,5.47
2022-10-28T07:52:39.634Z,5.27
2022-10-28T07:55:08.839Z,4.97
2022-10-28T07:57:38.960Z,4.70
2022-10-28T08:00:08.297Z,4.60
2022-10-28T08:02:36.219Z,5.10
2022-10-28T08:05:04.822Z,5.07
2022-10-28T08:07:36.230Z,4.73
2022-10-28T08:10:07.558Z,5.03
2022-10-28T08:12:37.019Z,5.53
2022-10-28T08:15:05.945Z,5.07
2022-10-28T08:17:33.959Z,5.03
2022-10-28T08:20:01.836Z,5.07
2022-10-28T08:22:29.813Z,4.83
2022-10-28T08:24:58.058Z,5.30
2022-10-28T08:27:26.048Z,5.00
2022-10-28T08:29:55.331Z,4.50
2022-10-28T08:32:23.363Z,3.67
2022-10-28T08:34:51.445Z,4.00
2022-10-28T08:37:19.479Z,4.23
2022-10-28T08:39:47.579Z,4.03
2022-10-28T08:42:30.869Z,4.43
2022-10-28T08:45:16.007Z,4.27
2022-10-28T08:47:55.140Z,4.17
2022-10-28T08:50:25.932Z,4.30
2022-10-28T08:52:58.066Z,4.13
2022-10-28T08:55:30.088Z,4.00
2022-10-28T08:58:02.271Z,6.35
2022-10-28T09:00:34.015Z,3.97
2022-10-28T09:03:20.623Z,4.50
2022-10-28T09:05:51.138Z,4.00
2022-10-28T09:08:23.831Z,3.95
2022-10-28T09:11:26.299Z,4.05
2022-10-28T09:14:08.606Z,3.25
2022-10-28T09:16:44.788Z,3.63
2022-10-28T09:19:20.522Z,2.85
2022-10-28T09:21:52.012Z,3.08
2022-10-28T09:24:21.988Z,3.70
2022-10-28T09:26:56.762Z,3.90
2022-10-28T09:29:44.169Z,2.97
2022-10-28T09:32:24.240Z,3.33
2022-10-28T09:34:58.576Z,2.97
2022-10-28T09:37:32.596Z,2.60
2022-10-28T09:40:06.236Z,2.50
2022-10-28T09:45:16.766Z,2.95
2022-10-28T09:47:52.799Z,3.05
2022-10-28T09:50:25.240Z,3.03
2022-10-28T09:52:59.689Z,2.50
2022-10-28T09:55:27.694Z,2.10
2022-10-28T09:57:56.222Z,2.17
2022-10-28T10:00:24.390Z,2.08
2022-10-28T10:02:57.590Z,2.50
2022-10-28T10:05:26.847Z,2.40
2022-10-28T10:07:57.500Z,2.85
2022-10-28T10:10:29.019Z,2.30
2022-10-28T10:13:00.479Z,1.85
2022-10-28T10:15:31.823Z,2.35
2022-10-28T10:18:05.074Z,2.28
2022-10-28T10:20:48.847Z,2.92
2022-10-28T10:23:24.759Z,2.42
2022-10-28T10:25:58.316Z,1.58
2022-10-28T10:28:27.417Z,2.15
2022-10-28T10:30:57.425Z,2.20
2022-10-28T10:33:30.693Z,2.72
2022-10-28T10:36:02.325Z,3.00
2022-10-28T10:38:31.669Z,2.00
2022-10-28T10:41:00.146Z,2.63
2022-10-28T10:43:33.260Z,2.60
2022-10-28T10:46:03.730Z,1.60
2022-10-28T10:48:36.411Z,2.33
2022-10-28T10:51:09.976Z,2.35
2022-10-28T10:53:39.150Z,2.35
2022-10-28T10:56:10.762Z,2.58
2022-10-28T10:58:41.001Z,2.40
2022-10-28T11:01:09.666Z,2.00
2022-10-28T11:03:47.429Z,2.08
2022-10-28T11:06:24.340Z,2.13
2022-10-28T11:08:59.558Z,2.13
2022-10-28T11:11:35.057Z,2.33
2022-10-28T11:14:08.773Z,2.00
2022-10-28T11:16:49.744Z,1.90
2022-10-28T11:19:23.718Z,2.28
2022-10-28T11:22:21.218Z,2.53
2022-10-28T11:25:19.203Z,2.60
2022-10-28T11:28:01.594Z,2.95
2022-10-28T11:30:41.970Z,1.80
2022-10-28T11:33:29.382Z,2.22
2022-10-28T11:36:13.624Z,1.90
2022-10-28T11:39:03.324Z,2.83
2022-10-28T11:41:41.394Z,2.50
2022-10-28T11:44:24.840Z,2.28
2022-10-28T11:47:04.225Z,1.63
2022-10-28T11:49:51.570Z,2.55
2022-10-28T11:52:32.647Z,1.70
2022-10-28T11:55:14.536Z,2.10
2022-10-28T11:57:53.752Z,2.65
2022-10-28T12:00:38.678Z,2.03
2022-10-28T12:03:27.211Z,1.90
2022-10-28T12:06:04.303Z,2.00
2022-10-28T12:08:47.172Z,2.25
2022-10-28T12:11:27.264Z,2.25
2022-10-28T12:16:40.599Z,1.70
2022-10-28T12:19:14.327Z,1.98
2022-10-28T12:21:45.548Z,1.92
2022-10-28T12:24:18.351Z,1.92
2022-10-28T12:26:49.659Z,1.55
2022-10-28T12:29:22.869Z,2.25
2022-10-28T12:31:55.989Z,1.95
2022-10-28T12:34:29.519Z,2.38
2022-10-28T12:37:03.171Z,1.80
2022-10-28T12:39:35.983Z,2.10
2022-10-28T12:42:11.802Z,2.10
2022-10-28T12:44:40.740Z,2.00
2022-10-28T12:47:20.251Z,2.20
2022-10-28T12:50:01.253Z,2.00
2022-10-28T12:52:45.591Z,1.70
2022-10-28T12:55:25.953Z,2.33
2022-10-28T12:58:00.057Z,2.25
2022-10-28T13:00:30.453Z,1.85
2022-10-28T13:03:03.165Z,2.40
2022-10-28T13:05:38.539Z,2.10
2022-10-28T13:08:46.649Z,2.08
2022-10-28T13:11:53.064Z,2.33
2022-10-28T13:14:46.410Z,1.65
2022-10-28T13:17:28.756Z,2.05
2022-10-28T13:20:09.621Z,2.17
2022-10-28T13:22:56.739Z,2.38
2022-10-28T13:25:42.892Z,2.47
2022-10-28T13:28:16.999Z,2.20
2022-10-28T13:30:55.050Z,2.75
2022-10-28T13:33:26.437Z,1.60
2022-10-28T13:35:55.583Z,2.03
2022-10-28T13:38:26.806Z,2.08
2022-10-28T13:41:26.552Z,1.77
2022-10-28T13:44:23.816Z,2.20
2022-10-28T13:47:30.856Z,2.50
2022-10-28T13:50:35.241Z,2.50
2022-10-28T13:53:43.648Z,1.85
2022-10-28T13:56:45.115Z,2.00
2022-10-28T13:59:29.195Z,2.10
2022-10-28T14:02:34.939Z,2.10
2022-10-28T14:05:06.388Z,2.95
2022-10-28T14:07:36.664Z,2.50
2022-10-28T14:10:21.102Z,2.10
2022-10-28T14:12:53.155Z,2.15
2022-10-28T14:15:28.244Z,2.10
2022-10-28T14:18:10.239Z,1.88
2022-10-28T14:20:54.972Z,2.03
2022-10-28T14:23:51.875Z,1.95
2022-10-28T14:26:19.919Z,1.77
2022-10-28T14:28:52.769Z,1.80
2022-10-28T14:31:39.465Z,2.35
2022-10-28T14:34:40.478Z,2.25
2022-10-28T14:37:40.114Z,2.58
2022-10-28T14:40:39.617Z,2.08
2022-10-28T14:43:17.753Z,2.40
2022-10-28T14:46:05.077Z,2.00
2022-10-28T14:48:50.515Z,2.63
2022-10-28T14:51:21.308Z,2.28
2022-10-28T14:53:53.085Z,2.42
2022-10-28T14:56:25.178Z,2.75
2022-10-28T14:58:55.366Z,2.58
2022-10-28T15:01:26.911Z,2.03
2022-10-28T15:04:00.153Z,2.58
2022-10-28T15:06:37.536Z,2.60
2022-10-28T15:09:12.224Z,2.25
2022-10-28T15:11:44.048Z,2.10
2022-10-28T15:14:17.088Z,2.60
2022-10-28T15:16:49.902Z,3.40
2022-10-28T15:19:22.888Z,2.80
2022-10-28T15:22:13.113Z,3.53
2022-10-28T15:24:44.771Z,4.13
2022-10-28T15:27:16.355Z,2.75
2022-10-28T15:29:44.601Z,2.75
2022-10-28T15:32:25.811Z,2.80
2022-10-28T15:34:55.227Z,3.10
2022-10-28T15:37:25.317Z,3.75
2022-10-28T15:40:12.390Z,2.80
2022-10-28T15:42:43.451Z,2.58
2022-10-28T15:45:20.065Z,3.08
2022-10-28T15:47:49.772Z,2.60
2022-10-28T15:50:42.894Z,3.03
2022-10-28T15:53:39.209Z,2.30
2022-10-28T15:56:22.695Z,2.97
2022-10-28T15:59:04.328Z,2.80
2022-10-28T16:01:38.904Z,2.60
2022-10-28T16:04:07.948Z,2.97
2022-10-28T16:06:38.329Z,3.20
2022-10-28T16:09:14.721Z,2.87
2022-10-28T16:11:46.345Z,2.63
2022-10-28T16:14:37.516Z,3.35
2022-10-28T16:17:15.590Z,2.40
2022-10-28T16:19:46.619Z,2.37
2022-10-28T16:22:16.713Z,2.57
2022-10-28T16:24:44.796Z,2.53
2022-10-28T16:27:18.891Z,2.80
2022-10-28T16:29:47.146Z,2.50
2022-10-28T16:32:17.366Z,3.40
2022-10-28T16:34:45.475Z,3.33
2022-10-28T16:37:23.292Z,2.97
2022-10-28T16:39:51.532Z,3.57
2022-10-28T16:42:21.022Z,4.03
2022-10-28T16:44:49.504Z,5.13
2022-10-28T16:47:19.886Z,3.67
2022-10-28T16:49:54.035Z,3.57
2022-10-28T16:52:29.790Z,3.47
2022-10-28T16:54:58.908Z,3.90
2022-10-28T16:57:27.474Z,3.87
2022-10-28T16:59:55.809Z,3.57
2022-10-28T17:02:26.918Z,4.23
2022-10-28T17:04:55.492Z,3.73
2022-10-28T17:07:23.809Z,4.37
2022-10-28T17:09:53.310Z,3.60
2022-10-28T17:12:23.245Z,3.37
2022-10-28T17:14:51.680Z,4.37
2022-10-28T17:17:20.324Z,4.23
2022-10-28T17:19:48.399Z,4.63
2022-10-28T17:22:16.737Z,4.43
2022-10-28T17:24:44.902Z,3.97
2022-10-28T17:27:14.330Z,3.57
2022-10-28T17:29:42.400Z,4.30
2022-10-28T17:32:10.593Z,4.07
2022-10-28T17:34:38.569Z,4.50
2022-10-28T17:37:07.966Z,4.77
2022-10-28T17:39:36.080Z,5.40
2022-10-28T17:42:04.511Z,5.93
2022-10-28T17:44:33.983Z,5.67
2022-10-28T17:47:02.344Z,4.90
2022-10-28T17:49:30.877Z,5.87
2022-10-28T17:51:58.815Z,4.13
2022-10-28T17:54:26.697Z,4.00
2022-10-28T17:56:54.733Z,4.37
2022-10-28T17:59:22.863Z,4.73
2022-10-28T18:01:52.394Z,4.90
2022-10-28T18:04:26.078Z,5.83
2022-10-28T18:06:54.804Z,5.37
2022-10-28T18:09:23.242Z,5.37
2022-10-28T18:11:51.372Z,5.53
2022-10-28T18:14:20.224Z,4.53
2022-10-28T18:16:50.263Z,4.03
2022-10-28T18:19:19.665Z,4.73
2022-10-28T18:21:48.032Z,4.93
2022-10-28T18:24:16.220Z,3.87
2022-10-28T18:26:44.713Z,4.40
2022-10-28T18:29:13.288Z,4.43
2022-10-28T18:31:43.965Z,4.17
2022-10-28T18:34:12.411Z,4.17
2022-10-28T18:36:41.842Z,5.23
2022-10-28T18:39:10.401Z,4.47
2022-10-28T18:41:41.901Z,4.93
2022-10-28T18:44:17.152Z,5.80
2022-10-28T18:46:46.172Z,5.93
2022-10-28T18:49:14.391Z,5.60
2022-10-28T18:51:43.851Z,5.47
2022-10-28T18:54:11.947Z,5.23
2022-10-28T18:56:40.302Z,5.40
2022-10-28T18:59:10.530Z,5.30
2022-10-28T19:01:38.655Z,5.20
2022-10-28T19:04:06.709Z,4.77
2022-10-28T19:06:35.684Z,4.60
2022-10-28T19:09:05.769Z,4.47
2022-10-28T19:11:35.291Z,4.30
2022-10-28T19:14:04.570Z,4.33
2022-10-28T19:16:34.228Z,5.10
2022-10-28T19:19:03.345Z,4.13
2022-10-28T19:21:31.787Z,4.10
2022-10-28T19:23:59.969Z,4.17
2022-10-28T19:26:30.377Z,4.10
2022-10-28T19:28:58.436Z,3.73
2022-10-28T19:31:27.405Z,3.50
2022-10-28T19:33:56.340Z,6.37
2022-10-28T19:36:26.358Z,6.17
2022-10-28T19:38:55.301Z,5.13
2022-10-28T19:41:24.864Z,5.17
2022-10-28T19:43:58.425Z,6.17
2022-10-28T19:46:28.232Z,5.50
2022-10-28T19:48:57.556Z,5.80
2022-10-28T19:51:27.365Z,5.27
2022-10-28T19:53:57.245Z,4.27
2022-10-28T19:56:25.379Z,5.13
2022-10-28T19:58:56.680Z,4.97
2022-10-28T20:01:26.438Z,4.90
2022-10-28T20:03:56.008Z,5.03
2022-10-28T20:06:25.838Z,4.90
2022-10-28T20:08:54.438Z,5.43
2022-10-28T20:11:26.325Z,4.37
2022-10-28T20:13:57.607Z,5.00
2022-10-28T20:16:26.379Z,4.07
2022-10-28T20:18:55.229Z,4.97
2022-10-28T20:21:24.400Z,5.10
2022-10-28T20:23:54.730Z,4.93
2022-10-28T20:26:25.398Z,4.50
2022-10-28T20:28:53.915Z,4.80
2022-10-28T20:31:24.557Z,5.27
2022-10-28T20:33:54.281Z,7.30
2022-10-28T20:36:24.778Z,6.40
2022-10-28T20:38:56.564Z,5.57
2022-10-28T20:41:25.707Z,5.53
2022-10-28T20:43:54.708Z,5.03
2022-10-28T20:46:25.327Z,4.87
2022-10-28T20:48:54.923Z,4.67
2022-10-28T20:51:23.076Z,4.83
2022-10-28T20:53:51.378Z,5.27
2022-10-28T20:56:20.460Z,5.37
2022-10-28T20:58:48.887Z,4.33
2022-10-28T21:01:19.685Z,4.33
2022-10-28T21:03:50.186Z,6.03
2022-10-28T21:06:18.657Z,5.37
2022-10-28T21:08:46.701Z,5.67
2022-10-28T21:11:15.887Z,5.33
2022-10-28T21:13:45.511Z,4.47
2022-10-28T21:16:14.048Z,6.57
2022-10-28T21:18:42.432Z,5.27
2022-10-28T21:21:12.864Z,5.73
2022-10-28T21:23:40.955Z,5.23
2022-10-28T21:26:09.663Z,5.23
2022-10-28T21:28:37.779Z,5.70
2022-10-28T21:31:07.594Z,5.20
2022-10-28T21:33:36.269Z,4.83
2022-10-28T21:36:06.810Z,4.37
2022-10-28T21:38:36.652Z,4.37
2022-10-28T21:41:06.501Z,4.50
2022-10-28T21:43:36.517Z,4.67
2022-10-28T21:46:04.696Z,4.10
2022-10-28T21:48:34.516Z,3.70
2022-10-28T21:51:04.829Z,4.80
2022-10-28T21:53:37.279Z,4.03
2022-10-28T21:56:09.076Z,4.57
2022-10-28T21:58:38.264Z,4.53
2022-10-28T22:01:07.944Z,3.83
2022-10-28T22:03:35.848Z,4.43
2022-10-28T22:06:04.374Z,4.17
2022-10-28T22:08:32.336Z,3.53
2022-10-28T22:11:03.612Z,3.10
2022-10-28T22:13:32.042Z,3.90
2022-10-28T22:16:01.220Z,3.80
2022-10-28T22:18:30.300Z,3.13
2022-10-28T22:20:58.733Z,3.77
2022-10-28T22:23:26.663Z,4.70
2022-10-28T22:25:54.670Z,4.30
2022-10-28T22:28:24.084Z,3.50
2022-10-28T22:30:51.924Z,3.80
2022-10-28T22:33:19.751Z,4.13
2022-10-28T22:35:57.601Z,4.27
2022-10-28T22:38:25.687Z,4.10
2022-10-28T22:41:03.376Z,3.80
2022-10-28T22:43:33.033Z,3.83
2022-10-28T22:46:01.936Z,3.67
2022-10-28T22:48:30.386Z,4.27
2022-10-28T22:50:58.479Z,3.93
2022-10-28T22:53:26.674Z,4.93
2022-10-28T22:55:55.702Z,4.47
2022-10-28T22:58:25.445Z,4.33
2022-10-28T23:00:55.091Z,5.30
2022-10-28T23:03:23.053Z,5.80
2022-10-28T23:05:50.955Z,4.53
2022-10-28T23:08:18.696Z,4.97
2022-10-28T23:10:46.643Z,4.93
2022-10-28T23:13:14.660Z,4.73
2022-10-28T23:15:42.627Z,4.80
2022-10-28T23:18:11.981Z,5.07
2022-10-28T23:20:40.026Z,4.53
2022-10-28T23:23:08.156Z,5.13
2022-10-28T23:25:36.057Z,5.70
2022-10-28T23:28:06.472Z,4.27
2022-10-28T23:30:34.562Z,5.13
2022-10-28T23:33:02.511Z,4.53
2022-10-28T23:35:31.756Z,4.23
2022-10-28T23:38:00.359Z,4.57
2022-10-28T23:40:28.310Z,4.20
2022-10-28T23:42:56.548Z,5.03
2022-10-28T23:45:24.769Z,4.90
2022-10-28T23:47:52.943Z,5.60
2022-10-28T23:50:20.976Z,5.37
2022-10-28T23:52:55.046Z,4.43
2022-10-28T23:55:23.223Z,4.77
2022-10-28T23:57:51.253Z,4.70
